IGR weather

Cataratas Del Iguazú International Airport
Puerto Iguazu, Misiones Province, Argentina

Public forecast

Using degrees Celsius for public forecast. Weather courtesy of forecast.io.

Current aviation weather report (METAR) for Cataratas Del Iguazú International Airport

Retrieved 2019/12/13 10:15 UTC (0 seconds ago):

SARI 131015Z 18004KT 1500 BR FEW001 19/19 Q1012

Aviation forecast (TAF) for Cataratas Del Iguazú International Airport

Retrieved 2019/12/13 06:00 UTC (4 hours ago):

TAF SARI 130500Z 1306/1406 18005KT CAVOK TX31/1318Z TN20/1309Z PROB30 1308/1311 1500 BR NSC